Aviation Digital Data Service (ADDS)

Output produced by METARs form (0210 UTC 24 November 2017)
found at http://www.aviationweather.gov/adds/metars/
 
KSAV 240153Z 36007KT 10SM FEW008 OVC034 09/07 A3002 RMK AO2 SLP165 T00890072
KSVN 240156Z AUTO 35004KT 10SM OVC008 09/08 A2999 RMK AO2 CIG 007 RWY28 SLP159 T00900076 $
KLHW 240156Z AUTO 02009KT 10SM -RA FEW011 BKN030 OVC037 09/07 A2998 RMK AO2 RAB47 SLP155 P0000 T00930074 $
KTBR 240155Z AUTO 00000KT 10SM OVC026 10/04 A3003 RMK AO2 T00960041
KVDI 240155Z AUTO 04004KT 10SM OVC015 11/08 A3002 RMK AO2
KJYL 240155Z AUTO 05003KT 10SM OVC027 09/06 A3003 RMK AO2 T00920060
KDBN 240155Z AUTO 07003KT 10SM OVC024 11/06 A3005 RMK AO2
KJES 240202Z AUTO 01006KT 10SM OVC007 11/09 A2999 RMK AO2
KSSI 240207Z AUTO 01012KT 10SM OVC005 12/12 A2995 RMK AO2 T01170117
KBQK 240155Z AUTO 36007KT 10SM OVC003 11/10 A2998 RMK AO2
KAYS 240155Z AUTO 05003KT 10SM OVC004 12/11 A2998 RMK AO2 T01200105
KNBC 240156Z AUTO 02010KT 10SM SCT020 OVC034 08/07 A3001 RMK AO2 SLP163 T00830072
KHXD 240155Z AUTO 02012KT 10SM BKN008 BKN080 09/08 A3000 RMK AO2